Terminal Aerodrome Forecast
Issued by NWS Jackson, MS

Home | Current Version | Previous Version | Text Only | Print | Product List | Glossary On
Versions: 1 2 3 4 5 6 7 8 9 10 11 12
046
FTUS44 KJAN 111720
TAFJAN
TAF
KJAN 111720Z 1118/1218 27010G18KT P6SM SKC
     FM120000 35003KT P6SM SKC=

USA.gov is the U.S. government's official web portal to all federal, state and local government web resources and services.